Elmvale, Canada
Current Conditions -  °F | °C
As of 5:00 PM on Wednesday 22 Oct 2014 (Local Time) from CYBN Reporting Station
Clear Clear  
Wind Chill: 50°   Ceiling: Unl
Heat Index: 50°   Visibility: 9mi
Dew Point: 41°   Wind: 6mph
Humidity: 71%   Direction: 320°NW
Pressure: 30.25"   Gusts: NA
Location:  44.58°N, 79.87°W
Report Text: CYBN 222100Z AUTO 32005KT 9SM CLR 10/05 A3025 RMK SLP251
Loading
Personal Weather Stations






























Interactive Weather Map
Tropical Storm Tracking
New forecast layout! Learn more

10-Day Weather Forecast

Advertisements
Track Severe Weather on mobile